sensor_id;sensor_type;location;lat;lon;timestamp;P1;durP1;ratioP1;P2;durP2;ratioP2
49043;SDS011;34860;48.066;14.124;2024-03-06T00:00:20;12.52;;;4.70;;
49043;SDS011;34860;48.066;14.124;2024-03-06T00:03:10;16.00;;;4.25;;
49043;SDS011;34860;48.066;14.124;2024-03-06T00:05:59;12.10;;;4.35;;
49043;SDS011;34860;48.066;14.124;2024-03-06T00:08:48;16.83;;;4.35;;
49043;SDS011;34860;48.066;14.124;2024-03-06T00:11:38;13.70;;;4.25;;
49043;SDS011;34860;48.066;14.124;2024-03-06T00:14:28;10.50;;;3.90;;
49043;SDS011;34860;48.066;14.124;2024-03-06T00:17:18;17.20;;;4.65;;
49043;SDS011;34860;48.066;14.124;2024-03-06T00:20:08;11.32;;;4.68;;
49043;SDS011;34860;48.066;14.124;2024-03-06T00:22:58;12.40;;;3.47;;
49043;SDS011;34860;48.066;14.124;2024-03-06T00:25:50;6.88;;;3.22;;
49043;SDS011;34860;48.066;14.124;2024-03-06T00:28:39;14.63;;;3.70;;
49043;SDS011;34860;48.066;14.124;2024-03-06T00:31:32;6.00;;;3.08;;
49043;SDS011;34860;48.066;14.124;2024-03-06T00:34:23;7.82;;;3.67;;
49043;SDS011;34860;48.066;14.124;2024-03-06T00:37:12;6.55;;;3.22;;
49043;SDS011;34860;48.066;14.124;2024-03-06T00:40:01;8.60;;;2.83;;
49043;SDS011;34860;48.066;14.124;2024-03-06T00:42:50;11.63;;;3.90;;
49043;SDS011;34860;48.066;14.124;2024-03-06T00:45:39;13.70;;;5.05;;
49043;SDS011;34860;48.066;14.124;2024-03-06T00:48:29;13.60;;;4.35;;
49043;SDS011;34860;48.066;14.124;2024-03-06T00:51:20;11.93;;;4.72;;
49043;SDS011;34860;48.066;14.124;2024-03-06T00:54:12;12.63;;;5.45;;
49043;SDS011;34860;48.066;14.124;2024-03-06T00:57:03;16.50;;;5.63;;
49043;SDS011;34860;48.066;14.124;2024-03-06T00:59:52;22.67;;;4.47;;
49043;SDS011;34860;48.066;14.124;2024-03-06T01:02:41;17.75;;;5.72;;
49043;SDS011;34860;48.066;14.124;2024-03-06T01:05:31;17.98;;;4.82;;
49043;SDS011;34860;48.066;14.124;2024-03-06T01:08:22;21.63;;;4.88;;
49043;SDS011;34860;48.066;14.124;2024-03-06T01:11:12;18.42;;;4.60;;
49043;SDS011;34860;48.066;14.124;2024-03-06T01:14:02;12.40;;;4.47;;
49043;SDS011;34860;48.066;14.124;2024-03-06T01:16:51;15.80;;;5.47;;
49043;SDS011;34860;48.066;14.124;2024-03-06T01:19:43;16.67;;;5.38;;
49043;SDS011;34860;48.066;14.124;2024-03-06T01:22:34;16.48;;;4.15;;
49043;SDS011;34860;48.066;14.124;2024-03-06T01:25:25;16.30;;;5.15;;
49043;SDS011;34860;48.066;14.124;2024-03-06T01:28:14;14.13;;;6.00;;
49043;SDS011;34860;48.066;14.124;2024-03-06T01:31:04;13.85;;;5.68;;
49043;SDS011;34860;48.066;14.124;2024-03-06T01:33:54;14.23;;;4.35;;
49043;SDS011;34860;48.066;14.124;2024-03-06T01:36:43;10.45;;;4.45;;
49043;SDS011;34860;48.066;14.124;2024-03-06T01:39:32;12.88;;;5.00;;
49043;SDS011;34860;48.066;14.124;2024-03-06T01:42:24;9.65;;;4.32;;
49043;SDS011;34860;48.066;14.124;2024-03-06T01:45:13;12.68;;;4.82;;
49043;SDS011;34860;48.066;14.124;2024-03-06T01:48:03;13.98;;;5.18;;
49043;SDS011;34860;48.066;14.124;2024-03-06T01:50:56;13.63;;;4.78;;
49043;SDS011;34860;48.066;14.124;2024-03-06T01:53:46;15.52;;;3.92;;
49043;SDS011;34860;48.066;14.124;2024-03-06T01:56:36;13.95;;;4.20;;
49043;SDS011;34860;48.066;14.124;2024-03-06T01:59:30;7.90;;;3.53;;
49043;SDS011;34860;48.066;14.124;2024-03-06T02:02:21;15.75;;;6.20;;
49043;SDS011;34860;48.066;14.124;2024-03-06T02:05:10;11.68;;;4.63;;
49043;SDS011;34860;48.066;14.124;2024-03-06T02:08:01;15.60;;;4.90;;
49043;SDS011;34860;48.066;14.124;2024-03-06T02:10:52;9.10;;;3.72;;
49043;SDS011;34860;48.066;14.124;2024-03-06T02:13:42;10.27;;;3.92;;
49043;SDS011;34860;48.066;14.124;2024-03-06T02:16:33;9.70;;;4.15;;
49043;SDS011;34860;48.066;14.124;2024-03-06T02:19:23;14.73;;;3.78;;
49043;SDS011;34860;48.066;14.124;2024-03-06T02:22:15;17.70;;;6.00;;
49043;SDS011;34860;48.066;14.124;2024-03-06T02:25:05;12.77;;;3.97;;
49043;SDS011;34860;48.066;14.124;2024-03-06T02:27:56;13.38;;;4.97;;
49043;SDS011;34860;48.066;14.124;2024-03-06T02:30:49;9.93;;;3.92;;
49043;SDS011;34860;48.066;14.124;2024-03-06T02:33:39;17.92;;;6.55;;
49043;SDS011;34860;48.066;14.124;2024-03-06T02:36:28;9.63;;;4.63;;
49043;SDS011;34860;48.066;14.124;2024-03-06T02:39:19;11.57;;;5.38;;
49043;SDS011;34860;48.066;14.124;2024-03-06T02:42:08;24.02;;;6.00;;
49043;SDS011;34860;48.066;14.124;2024-03-06T02:44:58;12.15;;;5.50;;
49043;SDS011;34860;48.066;14.124;2024-03-06T02:47:47;18.98;;;4.45;;
49043;SDS011;34860;48.066;14.124;2024-03-06T02:50:36;25.20;;;6.72;;
49043;SDS011;34860;48.066;14.124;2024-03-06T02:53:25;19.83;;;6.25;;
49043;SDS011;34860;48.066;14.124;2024-03-06T02:56:18;19.48;;;6.30;;
49043;SDS011;34860;48.066;14.124;2024-03-06T02:59:07;15.95;;;5.82;;
49043;SDS011;34860;48.066;14.124;2024-03-06T03:01:56;18.38;;;7.30;;
49043;SDS011;34860;48.066;14.124;2024-03-06T03:04:46;16.30;;;6.18;;
49043;SDS011;34860;48.066;14.124;2024-03-06T03:07:35;18.75;;;6.40;;
49043;SDS011;34860;48.066;14.124;2024-03-06T03:10:24;14.95;;;5.55;;
49043;SDS011;34860;48.066;14.124;2024-03-06T03:13:15;16.17;;;5.15;;
49043;SDS011;34860;48.066;14.124;2024-03-06T03:16:04;15.75;;;4.85;;
49043;SDS011;34860;48.066;14.124;2024-03-06T03:18:54;15.25;;;5.68;;
49043;SDS011;34860;48.066;14.124;2024-03-06T03:21:46;11.60;;;5.38;;
49043;SDS011;34860;48.066;14.124;2024-03-06T03:24:35;15.18;;;6.22;;
49043;SDS011;34860;48.066;14.124;2024-03-06T03:27:24;21.27;;;6.88;;
49043;SDS011;34860;48.066;14.124;2024-03-06T03:30:15;22.33;;;6.43;;
49043;SDS011;34860;48.066;14.124;2024-03-06T03:33:08;22.27;;;5.82;;
49043;SDS011;34860;48.066;14.124;2024-03-06T03:35:57;12.10;;;5.70;;
49043;SDS011;34860;48.066;14.124;2024-03-06T03:38:47;21.52;;;5.75;;
49043;SDS011;34860;48.066;14.124;2024-03-06T03:41:36;18.85;;;6.35;;
49043;SDS011;34860;48.066;14.124;2024-03-06T03:44:26;20.35;;;6.90;;
49043;SDS011;34860;48.066;14.124;2024-03-06T03:47:17;16.30;;;6.82;;
49043;SDS011;34860;48.066;14.124;2024-03-06T03:50:07;21.08;;;7.13;;
49043;SDS011;34860;48.066;14.124;2024-03-06T03:53:00;14.60;;;4.75;;
49043;SDS011;34860;48.066;14.124;2024-03-06T03:55:49;20.23;;;4.93;;
49043;SDS011;34860;48.066;14.124;2024-03-06T03:58:38;20.52;;;7.00;;
49043;SDS011;34860;48.066;14.124;2024-03-06T04:01:30;17.83;;;6.20;;
49043;SDS011;34860;48.066;14.124;2024-03-06T04:04:21;14.00;;;5.63;;
49043;SDS011;34860;48.066;14.124;2024-03-06T04:07:10;14.68;;;6.30;;
49043;SDS011;34860;48.066;14.124;2024-03-06T04:09:59;14.30;;;5.65;;
49043;SDS011;34860;48.066;14.124;2024-03-06T04:12:48;18.92;;;7.30;;
49043;SDS011;34860;48.066;14.124;2024-03-06T04:15:39;11.60;;;5.18;;
49043;SDS011;34860;48.066;14.124;2024-03-06T04:18:28;18.25;;;6.60;;
49043;SDS011;34860;48.066;14.124;2024-03-06T04:21:20;20.08;;;7.07;;
49043;SDS011;34860;48.066;14.124;2024-03-06T04:24:10;18.85;;;6.03;;
49043;SDS011;34860;48.066;14.124;2024-03-06T04:26:59;22.38;;;5.47;;
49043;SDS011;34860;48.066;14.124;2024-03-06T04:29:48;14.65;;;5.00;;
49043;SDS011;34860;48.066;14.124;2024-03-06T04:32:37;16.58;;;5.32;;
49043;SDS011;34860;48.066;14.124;2024-03-06T04:35:26;17.08;;;6.65;;
49043;SDS011;34860;48.066;14.124;2024-03-06T04:38:17;16.83;;;5.65;;
49043;SDS011;34860;48.066;14.124;2024-03-06T04:41:07;14.32;;;6.88;;
49043;SDS011;34860;48.066;14.124;2024-03-06T04:43:56;18.30;;;6.45;;
49043;SDS011;34860;48.066;14.124;2024-03-06T04:46:49;22.40;;;7.05;;
49043;SDS011;34860;48.066;14.124;2024-03-06T04:49:40;17.50;;;5.70;;
49043;SDS011;34860;48.066;14.124;2024-03-06T04:52:29;21.95;;;6.85;;
49043;SDS011;34860;48.066;14.124;2024-03-06T04:55:20;15.95;;;6.30;;
49043;SDS011;34860;48.066;14.124;2024-03-06T04:58:10;17.77;;;6.75;;
49043;SDS011;34860;48.066;14.124;2024-03-06T05:00:59;23.35;;;7.78;;
49043;SDS011;34860;48.066;14.124;2024-03-06T05:03:48;17.05;;;7.07;;
49043;SDS011;34860;48.066;14.124;2024-03-06T05:06:54;18.38;;;6.35;;
49043;SDS011;34860;48.066;14.124;2024-03-06T05:10:00;20.92;;;6.60;;
49043;SDS011;34860;48.066;14.124;2024-03-06T05:13:08;20.27;;;6.00;;
49043;SDS011;34860;48.066;14.124;2024-03-06T05:16:14;18.75;;;6.70;;
49043;SDS011;34860;48.066;14.124;2024-03-06T05:19:20;17.38;;;5.72;;
49043;SDS011;34860;48.066;14.124;2024-03-06T05:22:26;20.48;;;7.85;;
49043;SDS011;34860;48.066;14.124;2024-03-06T05:25:32;15.45;;;8.60;;
49043;SDS011;34860;48.066;14.124;2024-03-06T05:28:40;12.85;;;5.72;;
49043;SDS011;34860;48.066;14.124;2024-03-06T05:31:47;11.00;;;4.90;;
49043;SDS011;34860;48.066;14.124;2024-03-06T05:34:53;19.88;;;6.10;;
49043;SDS011;34860;48.066;14.124;2024-03-06T05:38:00;18.45;;;6.60;;
49043;SDS011;34860;48.066;14.124;2024-03-06T05:41:06;13.75;;;6.65;;
49043;SDS011;34860;48.066;14.124;2024-03-06T05:47:21;21.98;;;8.80;;
49043;SDS011;34860;48.066;14.124;2024-03-06T05:50:27;24.70;;;8.70;;
49043;SDS011;34860;48.066;14.124;2024-03-06T05:53:35;24.67;;;9.32;;
49043;SDS011;34860;48.066;14.124;2024-03-06T05:56:43;31.42;;;10.10;;
49043;SDS011;34860;48.066;14.124;2024-03-06T05:59:51;22.27;;;8.00;;
49043;SDS011;34860;48.066;14.124;2024-03-06T06:02:41;24.30;;;9.80;;
49043;SDS011;34860;48.066;14.124;2024-03-06T06:05:30;31.50;;;11.45;;
49043;SDS011;34860;48.066;14.124;2024-03-06T06:08:19;24.25;;;10.02;;
49043;SDS011;34860;48.066;14.124;2024-03-06T06:11:08;27.70;;;9.90;;
49043;SDS011;34860;48.066;14.124;2024-03-06T06:13:57;23.50;;;9.45;;
49043;SDS011;34860;48.066;14.124;2024-03-06T06:16:49;32.45;;;9.93;;
49043;SDS011;34860;48.066;14.124;2024-03-06T06:19:38;34.72;;;10.00;;
49043;SDS011;34860;48.066;14.124;2024-03-06T06:22:31;32.25;;;12.25;;
49043;SDS011;34860;48.066;14.124;2024-03-06T06:25:20;28.83;;;8.93;;
49043;SDS011;34860;48.066;14.124;2024-03-06T06:28:09;30.23;;;10.18;;
49043;SDS011;34860;48.066;14.124;2024-03-06T06:30:58;26.15;;;9.13;;
49043;SDS011;34860;48.066;14.124;2024-03-06T06:33:49;24.80;;;10.60;;
49043;SDS011;34860;48.066;14.124;2024-03-06T06:36:39;25.55;;;8.32;;
49043;SDS011;34860;48.066;14.124;2024-03-06T06:39:33;26.20;;;10.38;;
49043;SDS011;34860;48.066;14.124;2024-03-06T06:42:23;28.90;;;11.10;;
49043;SDS011;34860;48.066;14.124;2024-03-06T06:45:12;22.95;;;10.88;;
49043;SDS011;34860;48.066;14.124;2024-03-06T06:48:01;27.13;;;8.60;;
49043;SDS011;34860;48.066;14.124;2024-03-06T06:50:53;23.58;;;8.98;;
49043;SDS011;34860;48.066;14.124;2024-03-06T06:53:42;25.45;;;9.63;;
49043;SDS011;34860;48.066;14.124;2024-03-06T06:56:31;23.25;;;9.45;;
49043;SDS011;34860;48.066;14.124;2024-03-06T06:59:21;31.08;;;9.75;;
49043;SDS011;34860;48.066;14.124;2024-03-06T07:02:11;22.88;;;8.95;;
49043;SDS011;34860;48.066;14.124;2024-03-06T07:05:00;33.10;;;10.52;;
49043;SDS011;34860;48.066;14.124;2024-03-06T07:07:53;23.80;;;8.45;;
49043;SDS011;34860;48.066;14.124;2024-03-06T07:10:42;22.27;;;9.82;;
49043;SDS011;34860;48.066;14.124;2024-03-06T07:13:31;22.60;;;8.80;;
49043;SDS011;34860;48.066;14.124;2024-03-06T07:16:21;22.83;;;9.30;;
49043;SDS011;34860;48.066;14.124;2024-03-06T07:19:10;18.77;;;8.07;;
49043;SDS011;34860;48.066;14.124;2024-03-06T07:21:59;26.25;;;7.90;;
49043;SDS011;34860;48.066;14.124;2024-03-06T07:24:50;27.52;;;9.80;;
49043;SDS011;34860;48.066;14.124;2024-03-06T07:27:39;30.70;;;10.68;;
49043;SDS011;34860;48.066;14.124;2024-03-06T07:30:28;28.25;;;8.73;;
49043;SDS011;34860;48.066;14.124;2024-03-06T07:33:18;26.20;;;10.10;;
49043;SDS011;34860;48.066;14.124;2024-03-06T07:36:07;19.15;;;8.05;;
49043;SDS011;34860;48.066;14.124;2024-03-06T07:38:57;26.50;;;9.02;;
49043;SDS011;34860;48.066;14.124;2024-03-06T07:41:48;22.80;;;9.68;;
49043;SDS011;34860;48.066;14.124;2024-03-06T07:44:37;24.00;;;9.60;;
49043;SDS011;34860;48.066;14.124;2024-03-06T07:47:26;24.67;;;7.90;;
49043;SDS011;34860;48.066;14.124;2024-03-06T07:50:15;25.42;;;9.23;;
49043;SDS011;34860;48.066;14.124;2024-03-06T07:53:06;24.23;;;9.10;;
49043;SDS011;34860;48.066;14.124;2024-03-06T07:55:55;22.38;;;8.50;;
49043;SDS011;34860;48.066;14.124;2024-03-06T07:58:46;26.65;;;8.90;;
49043;SDS011;34860;48.066;14.124;2024-03-06T08:01:35;18.08;;;6.43;;
49043;SDS011;34860;48.066;14.124;2024-03-06T08:04:24;22.00;;;8.07;;
49043;SDS011;34860;48.066;14.124;2024-03-06T08:07:14;27.38;;;7.88;;
49043;SDS011;34860;48.066;14.124;2024-03-06T08:10:03;23.23;;;8.32;;
49043;SDS011;34860;48.066;14.124;2024-03-06T08:12:53;26.67;;;7.68;;
49043;SDS011;34860;48.066;14.124;2024-03-06T08:15:44;23.75;;;8.27;;
49043;SDS011;34860;48.066;14.124;2024-03-06T08:18:34;21.60;;;7.95;;
49043;SDS011;34860;48.066;14.124;2024-03-06T08:21:26;21.92;;;9.30;;
49043;SDS011;34860;48.066;14.124;2024-03-06T08:24:15;21.52;;;7.45;;
49043;SDS011;34860;48.066;14.124;2024-03-06T08:27:07;22.15;;;8.38;;
49043;SDS011;34860;48.066;14.124;2024-03-06T08:29:56;24.27;;;7.15;;
49043;SDS011;34860;48.066;14.124;2024-03-06T08:32:47;19.60;;;7.93;;
49043;SDS011;34860;48.066;14.124;2024-03-06T08:35:37;20.23;;;8.75;;
49043;SDS011;34860;48.066;14.124;2024-03-06T08:38:26;25.63;;;6.45;;
49043;SDS011;34860;48.066;14.124;2024-03-06T08:41:15;19.70;;;7.57;;
49043;SDS011;34860;48.066;14.124;2024-03-06T08:44:05;27.27;;;8.30;;
49043;SDS011;34860;48.066;14.124;2024-03-06T08:46:54;20.50;;;6.47;;
49043;SDS011;34860;48.066;14.124;2024-03-06T08:49:45;20.73;;;7.07;;
49043;SDS011;34860;48.066;14.124;2024-03-06T08:52:34;17.77;;;7.38;;
49043;SDS011;34860;48.066;14.124;2024-03-06T08:55:24;16.65;;;7.03;;
49043;SDS011;34860;48.066;14.124;2024-03-06T08:58:16;32.42;;;9.13;;
49043;SDS011;34860;48.066;14.124;2024-03-06T09:01:06;20.08;;;6.30;;
49043;SDS011;34860;48.066;14.124;2024-03-06T09:03:55;26.83;;;7.53;;
49043;SDS011;34860;48.066;14.124;2024-03-06T09:06:46;24.08;;;7.38;;
49043;SDS011;34860;48.066;14.124;2024-03-06T09:09:36;22.60;;;7.60;;
49043;SDS011;34860;48.066;14.124;2024-03-06T09:12:25;23.60;;;8.45;;
49043;SDS011;34860;48.066;14.124;2024-03-06T09:15:15;16.48;;;6.40;;
49043;SDS011;34860;48.066;14.124;2024-03-06T09:18:05;19.38;;;6.88;;
49043;SDS011;34860;48.066;14.124;2024-03-06T09:20:54;30.05;;;7.38;;
49043;SDS011;34860;48.066;14.124;2024-03-06T09:23:45;19.27;;;6.82;;
49043;SDS011;34860;48.066;14.124;2024-03-06T09:26:39;21.80;;;6.07;;
49043;SDS011;34860;48.066;14.124;2024-03-06T09:29:28;21.77;;;7.82;;
49043;SDS011;34860;48.066;14.124;2024-03-06T09:32:17;18.77;;;6.82;;
49043;SDS011;34860;48.066;14.124;2024-03-06T09:35:07;10.02;;;4.82;;
49043;SDS011;34860;48.066;14.124;2024-03-06T09:37:56;19.98;;;7.07;;
49043;SDS011;34860;48.066;14.124;2024-03-06T09:40:47;17.13;;;5.93;;
49043;SDS011;34860;48.066;14.124;2024-03-06T09:43:36;16.33;;;5.60;;
49043;SDS011;34860;48.066;14.124;2024-03-06T09:46:33;22.48;;;6.60;;
49043;SDS011;34860;48.066;14.124;2024-03-06T09:49:23;16.25;;;5.90;;
49043;SDS011;34860;48.066;14.124;2024-03-06T09:52:13;15.02;;;5.35;;
49043;SDS011;34860;48.066;14.124;2024-03-06T09:55:02;19.45;;;6.55;;
49043;SDS011;34860;48.066;14.124;2024-03-06T09:57:54;17.77;;;6.65;;
49043;SDS011;34860;48.066;14.124;2024-03-06T10:00:43;15.30;;;6.05;;
49043;SDS011;34860;48.066;14.124;2024-03-06T10:03:34;11.50;;;5.05;;
49043;SDS011;34860;48.066;14.124;2024-03-06T10:06:23;11.80;;;4.88;;
49043;SDS011;34860;48.066;14.124;2024-03-06T10:09:16;18.30;;;5.45;;
49043;SDS011;34860;48.066;14.124;2024-03-06T10:12:06;16.48;;;5.35;;
49043;SDS011;34860;48.066;14.124;2024-03-06T10:14:56;13.07;;;5.75;;
49043;SDS011;34860;48.066;14.124;2024-03-06T10:17:45;14.57;;;4.45;;
49043;SDS011;34860;48.066;14.124;2024-03-06T10:20:36;11.15;;;5.28;;
49043;SDS011;34860;48.066;14.124;2024-03-06T10:23:25;11.20;;;4.60;;
49043;SDS011;34860;48.066;14.124;2024-03-06T10:26:16;12.07;;;4.63;;
49043;SDS011;34860;48.066;14.124;2024-03-06T10:29:07;17.67;;;5.25;;
49043;SDS011;34860;48.066;14.124;2024-03-06T10:31:58;13.95;;;5.18;;
49043;SDS011;34860;48.066;14.124;2024-03-06T10:34:47;10.73;;;4.72;;
49043;SDS011;34860;48.066;14.124;2024-03-06T10:37:37;15.88;;;4.93;;
49043;SDS011;34860;48.066;14.124;2024-03-06T10:40:28;10.90;;;4.43;;
49043;SDS011;34860;48.066;14.124;2024-03-06T10:43:20;14.18;;;5.30;;
49043;SDS011;34860;48.066;14.124;2024-03-06T10:46:11;12.00;;;5.03;;
49043;SDS011;34860;48.066;14.124;2024-03-06T10:49:02;7.43;;;3.53;;
49043;SDS011;34860;48.066;14.124;2024-03-06T10:51:54;15.23;;;5.10;;
49043;SDS011;34860;48.066;14.124;2024-03-06T10:54:47;8.80;;;3.60;;
49043;SDS011;34860;48.066;14.124;2024-03-06T10:57:37;12.95;;;5.13;;
49043;SDS011;34860;48.066;14.124;2024-03-06T11:00:28;13.85;;;5.07;;
49043;SDS011;34860;48.066;14.124;2024-03-06T11:03:20;17.45;;;4.65;;
49043;SDS011;34860;48.066;14.124;2024-03-06T11:06:12;14.18;;;4.72;;
49043;SDS011;34860;48.066;14.124;2024-03-06T11:09:01;10.90;;;4.25;;
49043;SDS011;34860;48.066;14.124;2024-03-06T11:11:51;10.40;;;4.78;;
49043;SDS011;34860;48.066;14.124;2024-03-06T11:14:41;16.67;;;5.07;;
49043;SDS011;34860;48.066;14.124;2024-03-06T11:17:30;14.38;;;5.03;;
49043;SDS011;34860;48.066;14.124;2024-03-06T11:20:19;14.70;;;4.90;;
49043;SDS011;34860;48.066;14.124;2024-03-06T11:23:11;12.93;;;5.15;;
49043;SDS011;34860;48.066;14.124;2024-03-06T11:26:01;8.65;;;3.78;;
49043;SDS011;34860;48.066;14.124;2024-03-06T11:28:52;11.50;;;4.30;;
49043;SDS011;34860;48.066;14.124;2024-03-06T11:31:55;12.77;;;4.93;;
49043;SDS011;34860;48.066;14.124;2024-03-06T11:34:54;22.77;;;5.20;;
49043;SDS011;34860;48.066;14.124;2024-03-06T11:37:45;9.20;;;3.70;;
49043;SDS011;34860;48.066;14.124;2024-03-06T11:40:42;14.73;;;3.88;;
49043;SDS011;34860;48.066;14.124;2024-03-06T11:43:32;12.57;;;4.30;;
49043;SDS011;34860;48.066;14.124;2024-03-06T11:46:21;9.63;;;3.90;;
49043;SDS011;34860;48.066;14.124;2024-03-06T11:49:15;13.35;;;4.57;;
49043;SDS011;34860;48.066;14.124;2024-03-06T11:54:57;19.05;;;3.90;;
49043;SDS011;34860;48.066;14.124;2024-03-06T11:57:48;10.38;;;4.47;;
49043;SDS011;34860;48.066;14.124;2024-03-06T12:00:38;9.35;;;3.40;;
49043;SDS011;34860;48.066;14.124;2024-03-06T12:03:27;9.20;;;3.53;;
49043;SDS011;34860;48.066;14.124;2024-03-06T12:06:16;9.60;;;3.65;;
49043;SDS011;34860;48.066;14.124;2024-03-06T12:09:06;12.35;;;3.40;;
49043;SDS011;34860;48.066;14.124;2024-03-06T12:11:58;7.90;;;3.50;;
49043;SDS011;34860;48.066;14.124;2024-03-06T12:14:57;11.00;;;4.30;;
49043;SDS011;34860;48.066;14.124;2024-03-06T12:17:48;10.57;;;3.50;;
49043;SDS011;34860;48.066;14.124;2024-03-06T12:20:40;13.00;;;4.97;;
49043;SDS011;34860;48.066;14.124;2024-03-06T12:23:33;10.75;;;4.22;;
49043;SDS011;34860;48.066;14.124;2024-03-06T12:26:22;8.13;;;3.85;;
49043;SDS011;34860;48.066;14.124;2024-03-06T12:29:11;9.85;;;3.42;;
49043;SDS011;34860;48.066;14.124;2024-03-06T12:32:02;11.43;;;4.63;;
49043;SDS011;34860;48.066;14.124;2024-03-06T12:34:55;11.93;;;4.03;;
49043;SDS011;34860;48.066;14.124;2024-03-06T12:37:47;7.35;;;3.25;;
49043;SDS011;34860;48.066;14.124;2024-03-06T12:40:36;7.28;;;2.97;;
49043;SDS011;34860;48.066;14.124;2024-03-06T12:43:27;9.80;;;3.30;;
49043;SDS011;34860;48.066;14.124;2024-03-06T12:46:17;9.45;;;3.80;;
49043;SDS011;34860;48.066;14.124;2024-03-06T12:49:08;11.98;;;4.18;;
49043;SDS011;34860;48.066;14.124;2024-03-06T12:51:57;9.00;;;4.22;;
49043;SDS011;34860;48.066;14.124;2024-03-06T12:54:48;13.93;;;4.50;;
49043;SDS011;34860;48.066;14.124;2024-03-06T12:57:37;14.18;;;4.35;;
49043;SDS011;34860;48.066;14.124;2024-03-06T13:00:26;11.23;;;3.08;;
49043;SDS011;34860;48.066;14.124;2024-03-06T13:03:15;10.73;;;3.50;;
49043;SDS011;34860;48.066;14.124;2024-03-06T13:06:06;9.63;;;2.95;;
49043;SDS011;34860;48.066;14.124;2024-03-06T13:08:55;9.73;;;3.92;;
49043;SDS011;34860;48.066;14.124;2024-03-06T13:11:45;8.50;;;3.25;;
49043;SDS011;34860;48.066;14.124;2024-03-06T13:14:34;12.77;;;3.63;;
49043;SDS011;34860;48.066;14.124;2024-03-06T13:17:23;11.65;;;4.38;;
49043;SDS011;34860;48.066;14.124;2024-03-06T13:20:13;10.40;;;4.07;;
49043;SDS011;34860;48.066;14.124;2024-03-06T13:23:04;12.43;;;3.83;;
49043;SDS011;34860;48.066;14.124;2024-03-06T13:25:53;10.30;;;3.25;;
49043;SDS011;34860;48.066;14.124;2024-03-06T13:28:42;10.88;;;3.88;;
49043;SDS011;34860;48.066;14.124;2024-03-06T13:31:33;13.20;;;3.40;;
49043;SDS011;34860;48.066;14.124;2024-03-06T13:34:22;8.18;;;3.28;;
49043;SDS011;34860;48.066;14.124;2024-03-06T13:37:11;11.55;;;2.95;;
49043;SDS011;34860;48.066;14.124;2024-03-06T13:40:02;10.23;;;3.63;;
49043;SDS011;34860;48.066;14.124;2024-03-06T13:42:54;9.60;;;3.22;;
49043;SDS011;34860;48.066;14.124;2024-03-06T13:45:48;13.75;;;4.95;;
49043;SDS011;34860;48.066;14.124;2024-03-06T13:48:37;9.68;;;3.35;;
49043;SDS011;34860;48.066;14.124;2024-03-06T13:51:26;10.95;;;3.63;;
49043;SDS011;34860;48.066;14.124;2024-03-06T13:54:15;9.02;;;3.75;;
49043;SDS011;34860;48.066;14.124;2024-03-06T13:57:06;10.25;;;3.90;;
49043;SDS011;34860;48.066;14.124;2024-03-06T13:59:56;11.98;;;4.03;;
49043;SDS011;34860;48.066;14.124;2024-03-06T14:02:45;10.93;;;4.22;;
49043;SDS011;34860;48.066;14.124;2024-03-06T14:05:35;9.90;;;3.75;;
49043;SDS011;34860;48.066;14.124;2024-03-06T14:08:24;10.77;;;4.07;;
49043;SDS011;34860;48.066;14.124;2024-03-06T14:11:13;12.20;;;3.85;;
49043;SDS011;34860;48.066;14.124;2024-03-06T14:14:04;12.07;;;4.03;;
49043;SDS011;34860;48.066;14.124;2024-03-06T14:16:53;10.82;;;3.88;;
49043;SDS011;34860;48.066;14.124;2024-03-06T14:19:43;6.45;;;3.38;;
49043;SDS011;34860;48.066;14.124;2024-03-06T14:22:32;9.90;;;4.10;;
49043;SDS011;34860;48.066;14.124;2024-03-06T14:25:23;9.88;;;3.65;;
49043;SDS011;34860;48.066;14.124;2024-03-06T14:28:12;13.75;;;4.00;;
49043;SDS011;34860;48.066;14.124;2024-03-06T14:31:03;10.77;;;3.90;;
49043;SDS011;34860;48.066;14.124;2024-03-06T14:33:52;12.73;;;4.80;;
49043;SDS011;34860;48.066;14.124;2024-03-06T14:36:43;13.30;;;4.72;;
49043;SDS011;34860;48.066;14.124;2024-03-06T14:39:32;10.73;;;4.22;;
49043;SDS011;34860;48.066;14.124;2024-03-06T14:42:22;11.60;;;3.72;;
49043;SDS011;34860;48.066;14.124;2024-03-06T14:45:12;11.38;;;3.80;;
49043;SDS011;34860;48.066;14.124;2024-03-06T14:48:03;8.30;;;3.40;;
49043;SDS011;34860;48.066;14.124;2024-03-06T14:50:52;8.52;;;3.53;;
49043;SDS011;34860;48.066;14.124;2024-03-06T14:53:42;10.02;;;3.78;;
49043;SDS011;34860;48.066;14.124;2024-03-06T14:56:31;7.80;;;3.22;;
49043;SDS011;34860;48.066;14.124;2024-03-06T14:59:20;12.75;;;4.25;;
49043;SDS011;34860;48.066;14.124;2024-03-06T15:02:10;9.25;;;4.20;;
49043;SDS011;34860;48.066;14.124;2024-03-06T15:05:02;14.68;;;4.18;;
49043;SDS011;34860;48.066;14.124;2024-03-06T15:07:51;12.75;;;2.92;;
49043;SDS011;34860;48.066;14.124;2024-03-06T15:10:40;12.48;;;4.00;;
49043;SDS011;34860;48.066;14.124;2024-03-06T15:13:29;11.45;;;4.20;;
49043;SDS011;34860;48.066;14.124;2024-03-06T15:16:18;13.52;;;4.35;;
49043;SDS011;34860;48.066;14.124;2024-03-06T15:19:07;8.82;;;3.20;;
49043;SDS011;34860;48.066;14.124;2024-03-06T15:21:59;12.05;;;4.15;;
49043;SDS011;34860;48.066;14.124;2024-03-06T15:24:50;11.60;;;4.03;;
49043;SDS011;34860;48.066;14.124;2024-03-06T15:27:41;10.85;;;3.63;;
49043;SDS011;34860;48.066;14.124;2024-03-06T15:30:31;12.00;;;5.00;;
49043;SDS011;34860;48.066;14.124;2024-03-06T15:33:22;10.82;;;4.50;;
49043;SDS011;34860;48.066;14.124;2024-03-06T15:36:12;10.98;;;4.28;;
49043;SDS011;34860;48.066;14.124;2024-03-06T15:39:04;13.77;;;3.95;;
49043;SDS011;34860;48.066;14.124;2024-03-06T15:41:54;15.35;;;3.78;;
49043;SDS011;34860;48.066;14.124;2024-03-06T15:44:44;6.55;;;2.92;;
49043;SDS011;34860;48.066;14.124;2024-03-06T15:47:33;9.88;;;2.97;;
49043;SDS011;34860;48.066;14.124;2024-03-06T15:50:24;10.57;;;3.05;;
49043;SDS011;34860;48.066;14.124;2024-03-06T15:53:13;15.00;;;5.43;;
49043;SDS011;34860;48.066;14.124;2024-03-06T15:56:04;13.57;;;4.50;;
49043;SDS011;34860;48.066;14.124;2024-03-06T15:58:53;27.42;;;7.47;;
49043;SDS011;34860;48.066;14.124;2024-03-06T16:01:43;17.75;;;6.10;;
49043;SDS011;34860;48.066;14.124;2024-03-06T16:04:32;12.15;;;4.07;;
49043;SDS011;34860;48.066;14.124;2024-03-06T16:07:22;13.07;;;3.60;;
49043;SDS011;34860;48.066;14.124;2024-03-06T16:10:12;8.77;;;3.25;;
49043;SDS011;34860;48.066;14.124;2024-03-06T16:13:04;8.05;;;3.78;;
49043;SDS011;34860;48.066;14.124;2024-03-06T16:15:54;11.40;;;3.50;;
49043;SDS011;34860;48.066;14.124;2024-03-06T16:18:43;8.20;;;3.25;;
49043;SDS011;34860;48.066;14.124;2024-03-06T16:21:32;9.30;;;3.47;;
49043;SDS011;34860;48.066;14.124;2024-03-06T16:24:21;9.85;;;2.88;;
49043;SDS011;34860;48.066;14.124;2024-03-06T16:27:10;12.73;;;3.75;;
49043;SDS011;34860;48.066;14.124;2024-03-06T16:30:02;4.47;;;2.63;;
49043;SDS011;34860;48.066;14.124;2024-03-06T16:32:52;14.77;;;3.72;;
49043;SDS011;34860;48.066;14.124;2024-03-06T16:35:41;11.85;;;4.18;;
49043;SDS011;34860;48.066;14.124;2024-03-06T16:38:30;8.77;;;3.80;;
49043;SDS011;34860;48.066;14.124;2024-03-06T16:41:19;13.32;;;3.95;;
49043;SDS011;34860;48.066;14.124;2024-03-06T16:44:09;7.40;;;3.15;;
49043;SDS011;34860;48.066;14.124;2024-03-06T16:47:00;7.85;;;3.30;;